Wyoming, IL (61491)

10:56 PM CDT on April 25, 2015 (GMT -0500)
Stark County News | | Change Station
CLOSE
Current Station
Personal Weather Station
Location: Toulon, IL
Elevation: 735 ft
Nearby Weather Stations

Elev 735 ft 41.09 °N, 89.86 °W | Updated 5 minutes ago

Overcast
Overcast
43.2 °F
Feels Like 37 °F
N
10.9
Wind Variable Wind from NNE

Today
High -- | Low -- °F
--% Chance of Precip.
Yesterday
High -- | Low -- °F
Precip. -- in
6:05 AM 7:49 PM
First Quarter, 52% visible
Pressure 29.83 in
Visibility 10.0 miles
Clouds Scattered Clouds 1700 ft
Mostly Cloudy 3900 ft
Overcast 6000 ft
Windchill 37 °F
Dew Point 43 °F
Humidity 99%
Rainfall 1.23 in
Snow Depth Not available.
UV 0 out of 12
Pollen 1.00 out of 12
Air Quality Not available.
Flu Activity Regional
METAR KC75 260335Z AUTO 04009G15KT 10SM SCT017 BKN039 OVC060 07/04 A2983 RMK AO2 T00700035

More Conditions Fewer Conditions

Pressure 29.83 in
Visibility 10.0 miles
Clouds Scattered Clouds 1700 ft
Mostly Cloudy 3900 ft
Overcast 6000 ft
Windchill 37 °F
Dew Point 43 °F
Humidity 99%
Rainfall 1.23 in
Snow Depth Not available.
UV 0 out of 12
Pollen 1.00 out of 12
Air Quality Not available.
Flu Activity Regional
METAR KC75 260335Z AUTO 04009G15KT 10SM SCT017 BKN039 OVC060 07/04 A2983 RMK AO2 T00700035

More Conditions Fewer Conditions

The full scope of the disaster following a powerful 7.8-magnitude earthquake in Nepal may not come into view for days, but global charities are already sending emergency aid. Click to see how you can help.

10-Day Weather Forecast

Almanac

Astronomy

Apr. 25, 2015 Rise Set
Actual Time
Civil Twilight
Nautical Twilight
Astronomical Twilight
Moon
Length of Visible Light
Length of Day
Tomorrow will be .
, % of the Moon is Illuminated

Today's Extremes

State Highs State Lows

Community

WunderPhotos

Upload Photos

1,816,929 photos uploaded!

WunderBlogs® & News

Nearby

Air Quality

  Air Quality AQ Index Pollutant
Not available.

Snow Depth

Station Depth Elevation

Earthquake Activity

City Distance Mag. Time & Date
Minimum magnitude displayed is 2.5.

Coastal Water Temperatures

Place Temperature

Stations

Nearby Weather Stations

Station Location Temp. Windchill Dew Point Humidity Wind Precip. Elev Updated Type